Aurora, Missouri
Current Conditions -  °F | °C
As of 2:15 PM on Friday 31 Oct 2014 (Local Time) from KHFJ Reporting Station
Clear Clear  
Wind Chill: 40°   Ceiling: Unl
Heat Index: 46°   Visibility: 10mi
Dew Point: 27°   Wind: 15mph
Humidity: 46%   Direction: 340°NNW
Pressure: 30.35"   Gusts: 21mph
Location:  36.97°N, 93.72°W
Report Text: KHFJ 311915Z AUTO 34013G18KT 10SM CLR 08/M03 A3035 RMK AO2
Loading
Personal Weather Stations






























Interactive Weather Map New forecast layout! Learn more

10-Day Weather Forecast

Advertisements
Track Severe Weather on mobile